createdAt,value
2023-02-21T00:02:04.000Z,1013.8
2023-02-21T00:04:48.000Z,1013.7
2023-02-21T00:06:06.000Z,1013.7
2023-02-21T00:07:33.000Z,1013.7
2023-02-21T00:10:18.000Z,1013.7
2023-02-21T00:13:02.000Z,1013.6
2023-02-21T00:15:47.000Z,1013.7
2023-02-21T00:21:16.000Z,1013.7
2023-02-21T00:24:01.000Z,1013.8
2023-02-21T00:26:45.000Z,1013.8
2023-02-21T00:29:30.000Z,1013.8
2023-02-21T00:33:33.000Z,1013.8
2023-02-21T00:35:16.000Z,1013.7
2023-02-21T00:38:00.000Z,1013.9
2023-02-21T00:41:01.000Z,1013.8
2023-02-21T00:43:46.000Z,1013.8
2023-02-21T00:46:31.000Z,1013.7
2023-02-21T00:49:15.000Z,1013.7
2023-02-21T00:52:00.000Z,1013.7
2023-02-21T00:54:45.000Z,1013.7
2023-02-21T00:57:29.000Z,1013.6
2023-02-21T01:00:14.000Z,1013.5
2023-02-21T01:01:32.000Z,1013.5
2023-02-21T01:02:58.000Z,1013.5
2023-02-21T01:05:43.000Z,1013.4
2023-02-21T01:08:44.000Z,1013.5
2023-02-21T01:14:13.000Z,1013.5
2023-02-21T01:16:58.000Z,1013.5
2023-02-21T01:19:43.000Z,1013.5
2023-02-21T01:22:27.000Z,1013.5
2023-02-21T01:25:12.000Z,1013.5
2023-02-21T01:27:57.000Z,1013.5
2023-02-21T01:29:14.000Z,1013.5
2023-02-21T01:30:41.000Z,1013.5
2023-02-21T01:33:26.000Z,1013.5
2023-02-21T01:36:11.000Z,1013.5
2023-02-21T01:41:40.000Z,1013.5
2023-02-21T01:44:25.000Z,1013.5
2023-02-21T01:47:25.000Z,1013.6
2023-02-21T01:52:55.000Z,1013.6
2023-02-21T01:55:39.000Z,1013.6
2023-02-21T01:56:57.000Z,1013.6
2023-02-21T01:58:24.000Z,1013.6
2023-02-21T02:01:09.000Z,1013.6
2023-02-21T02:03:53.000Z,1013.6
2023-02-21T02:06:38.000Z,1013.6
2023-02-21T02:09:23.000Z,1013.6
2023-02-21T02:14:52.000Z,1013.5
2023-02-21T02:17:37.000Z,1013.5
2023-02-21T02:20:21.000Z,1013.4
2023-02-21T02:23:06.000Z,1013.4
2023-02-21T02:25:50.000Z,1013.4
2023-02-21T02:28:35.000Z,1013.3
2023-02-21T02:31:36.000Z,1013.3
2023-02-21T02:34:21.000Z,1013.2
2023-02-21T02:37:05.000Z,1013.2
2023-02-21T02:39:50.000Z,1013.3
2023-02-21T02:42:35.000Z,1013.3
2023-02-21T02:48:04.000Z,1013.4
2023-02-21T02:50:49.000Z,1013.3
2023-02-21T02:53:33.000Z,1013.4
2023-02-21T02:54:51.000Z,1013.4
2023-02-21T02:56:18.000Z,1013.4
2023-02-21T02:59:03.000Z,1013.4
2023-02-21T03:01:47.000Z,1013.3
2023-02-21T03:04:32.000Z,1013.3
2023-02-21T03:10:01.000Z,1013.3
2023-02-21T03:15:30.000Z,1013.3
2023-02-21T03:18:15.000Z,1013.3
2023-02-21T03:21:00.000Z,1013.3
2023-02-21T03:23:44.000Z,1013.4
2023-02-21T03:26:29.000Z,1013.4
2023-02-21T03:29:14.000Z,1013.4
2023-02-21T03:31:58.000Z,1013.4
2023-02-21T03:34:43.000Z,1013.5
2023-02-21T03:40:12.000Z,1013.5
2023-02-21T03:42:57.000Z,1013.5
2023-02-21T03:45:41.000Z,1013.5
2023-02-21T03:48:26.000Z,1013.6
2023-02-21T03:49:44.000Z,1013.5
2023-02-21T03:51:11.000Z,1013.5
2023-02-21T03:53:55.000Z,1013.5
2023-02-21T03:56:40.000Z,1013.6
2023-02-21T04:02:09.000Z,1013.6
2023-02-21T04:04:54.000Z,1013.6
2023-02-21T04:07:39.000Z,1013.6
2023-02-21T04:10:23.000Z,1013.7
2023-02-21T04:13:08.000Z,1013.6
2023-02-21T04:15:52.000Z,1013.6
2023-02-21T04:17:10.000Z,1013.7
2023-02-21T04:18:37.000Z,1013.7
2023-02-21T04:21:22.000Z,1013.7
2023-02-21T04:24:06.000Z,1013.7
2023-02-21T04:26:51.000Z,1013.7
2023-02-21T04:29:36.000Z,1013.7
2023-02-21T04:32:20.000Z,1013.7
2023-02-21T04:35:05.000Z,1013.7
2023-02-21T04:38:06.000Z,1013.8
2023-02-21T04:43:35.000Z,1013.8
2023-02-21T04:44:53.000Z,1013.7
2023-02-21T04:46:20.000Z,1013.8
2023-02-21T04:51:49.000Z,1013.7
2023-02-21T04:54:34.000Z,1013.7
2023-02-21T04:57:18.000Z,1013.8
2023-02-21T05:02:48.000Z,1013.8
2023-02-21T05:05:32.000Z,1013.8
2023-02-21T05:08:17.000Z,1013.8
2023-02-21T05:11:02.000Z,1013.8
2023-02-21T05:12:19.000Z,1013.7
2023-02-21T05:13:46.000Z,1013.8
2023-02-21T05:16:31.000Z,1013.7
2023-02-21T05:19:16.000Z,1013.8
2023-02-21T05:22:17.000Z,1013.7
2023-02-21T05:25:01.000Z,1013.7
2023-02-21T05:27:46.000Z,1013.7
2023-02-21T05:30:31.000Z,1013.7
2023-02-21T05:33:15.000Z,1013.7
2023-02-21T05:36:00.000Z,1013.7
2023-02-21T05:38:44.000Z,1013.6
2023-02-21T05:40:02.000Z,1013.6
2023-02-21T05:41:29.000Z,1013.6
2023-02-21T05:44:14.000Z,1013.5
2023-02-21T05:46:59.000Z,1013.6
2023-02-21T05:49:59.000Z,1013.5
2023-02-21T05:52:44.000Z,1013.5
2023-02-21T05:55:29.000Z,1013.5
2023-02-21T05:58:13.000Z,1013.5
2023-02-21T06:00:58.000Z,1013.5
2023-02-21T06:03:43.000Z,1013.5
2023-02-21T06:06:27.000Z,1013.5
2023-02-21T06:07:45.000Z,1013.5
2023-02-21T06:09:12.000Z,1013.5
2023-02-21T06:11:57.000Z,1013.5
2023-02-21T06:14:41.000Z,1013.5
2023-02-21T06:17:42.000Z,1013.4
2023-02-21T06:20:27.000Z,1013.5
2023-02-21T06:23:11.000Z,1013.5
2023-02-21T06:25:56.000Z,1013.5
2023-02-21T06:28:41.000Z,1013.5
2023-02-21T06:31:25.000Z,1013.4
2023-02-21T06:34:10.000Z,1013.4
2023-02-21T06:35:28.000Z,1013.4
2023-02-21T06:36:55.000Z,1013.4
2023-02-21T06:39:39.000Z,1013.5
2023-02-21T06:42:24.000Z,1013.4
2023-02-21T06:45:09.000Z,1013.4
2023-02-21T06:47:53.000Z,1013.4
2023-02-21T06:50:38.000Z,1013.3
2023-02-21T06:53:22.000Z,1013.3
2023-02-21T06:56:07.000Z,1013.3
2023-02-21T06:58:52.000Z,1013.4
2023-02-21T07:01:36.000Z,1013.4
2023-02-21T07:02:54.000Z,1013.4
2023-02-21T07:04:21.000Z,1013.4
2023-02-21T07:07:06.000Z,1013.4
2023-02-21T07:09:50.000Z,1013.5
2023-02-21T07:12:35.000Z,1013.4
2023-02-21T07:15:20.000Z,1013.4
2023-02-21T07:18:04.000Z,1013.5
2023-02-21T07:20:49.000Z,1013.4
2023-02-21T07:23:34.000Z,1013.4
2023-02-21T07:26:18.000Z,1013.5
2023-02-21T07:30:21.000Z,1013.5
2023-02-21T07:31:47.000Z,1013.5
2023-02-21T07:34:32.000Z,1013.5
2023-02-21T07:40:01.000Z,1013.5
2023-02-21T07:42:46.000Z,1013.5
2023-02-21T07:45:31.000Z,1013.5
2023-02-21T07:48:15.000Z,1013.6
2023-02-21T07:51:00.000Z,1013.6
2023-02-21T07:53:45.000Z,1013.7
2023-02-21T07:56:29.000Z,1013.7
2023-02-21T07:57:47.000Z,1013.7
2023-02-21T07:59:14.000Z,1013.7
2023-02-21T08:01:59.000Z,1013.8
2023-02-21T08:04:43.000Z,1013.8
2023-02-21T08:10:12.000Z,1013.8
2023-02-21T08:12:57.000Z,1013.9
2023-02-21T08:15:58.000Z,1013.8
2023-02-21T08:18:43.000Z,1013.8
2023-02-21T08:21:27.000Z,1013.8
2023-02-21T08:24:12.000Z,1013.8
2023-02-21T08:25:30.000Z,1013.8
2023-02-21T08:26:57.000Z,1013.8
2023-02-21T08:29:41.000Z,1013.8
2023-02-21T08:32:26.000Z,1013.9
2023-02-21T08:35:11.000Z,1013.9
2023-02-21T08:37:55.000Z,1013.9
2023-02-21T08:40:40.000Z,1013.9
2023-02-21T08:43:41.000Z,1013.9
2023-02-21T08:46:26.000Z,1014
2023-02-21T08:49:10.000Z,1013.9
2023-02-21T08:51:55.000Z,1014
2023-02-21T08:53:13.000Z,1013.9
2023-02-21T08:54:39.000Z,1013.9
2023-02-21T08:57:24.000Z,1014
2023-02-21T09:00:09.000Z,1013.9
2023-02-21T09:02:54.000Z,1014
2023-02-21T09:05:54.000Z,1014
2023-02-21T09:08:39.000Z,1014
2023-02-21T09:11:24.000Z,1014
2023-02-21T09:14:08.000Z,1013.9
2023-02-21T09:19:38.000Z,1013.9
2023-02-21T09:20:55.000Z,1014
2023-02-21T09:22:22.000Z,1014
2023-02-21T09:25:07.000Z,1013.9
2023-02-21T09:27:52.000Z,1014
2023-02-21T09:30:36.000Z,1013.9
2023-02-21T09:36:05.000Z,1014
2023-02-21T09:38:50.000Z,1014
2023-02-21T09:41:35.000Z,1013.9
2023-02-21T09:44:19.000Z,1013.9
2023-02-21T09:47:04.000Z,1013.9
2023-02-21T09:48:22.000Z,1013.9
2023-02-21T09:52:33.000Z,1013.9
2023-02-21T09:55:18.000Z,1013.9
2023-02-21T09:58:19.000Z,1013.9
2023-02-21T10:01:04.000Z,1013.9
2023-02-21T10:03:48.000Z,1013.9
2023-02-21T10:06:33.000Z,1013.9
2023-02-21T10:09:17.000Z,1013.9
2023-02-21T10:12:02.000Z,1013.9
2023-02-21T10:14:47.000Z,1013.9
2023-02-21T10:16:04.000Z,1013.9
2023-02-21T10:17:31.000Z,1013.9
2023-02-21T10:20:16.000Z,1013.9
2023-02-21T10:23:01.000Z,1013.9
2023-02-21T10:25:46.000Z,1013.9
2023-02-21T10:31:31.000Z,1014
2023-02-21T10:37:00.000Z,1013.9
2023-02-21T10:39:45.000Z,1014
2023-02-21T10:42:30.000Z,1014
2023-02-21T10:43:47.000Z,1014
2023-02-21T10:45:14.000Z,1014
2023-02-21T10:47:59.000Z,1014.1
2023-02-21T10:50:43.000Z,1014.1
2023-02-21T10:53:28.000Z,1014
2023-02-21T10:56:13.000Z,1014
2023-02-21T10:58:57.000Z,1014
2023-02-21T11:04:27.000Z,1014.1
2023-02-21T11:07:11.000Z,1014
2023-02-21T11:09:56.000Z,1014
2023-02-21T11:11:14.000Z,1014
2023-02-21T11:12:41.000Z,1014
2023-02-21T11:15:25.000Z,1014
2023-02-21T11:18:10.000Z,1014
2023-02-21T11:20:55.000Z,1014
2023-02-21T11:23:39.000Z,1013.9
2023-02-21T11:26:24.000Z,1013.9
2023-02-21T11:29:08.000Z,1013.9
2023-02-21T11:31:53.000Z,1013.9
2023-02-21T11:34:38.000Z,1013.9
2023-02-21T11:37:22.000Z,1013.8
2023-02-21T11:38:40.000Z,1013.9
2023-02-21T11:40:07.000Z,1013.8
2023-02-21T11:42:52.000Z,1013.8
2023-02-21T11:45:36.000Z,1013.8
2023-02-21T11:48:21.000Z,1013.7
2023-02-21T11:51:06.000Z,1013.7
2023-02-21T11:53:50.000Z,1013.7
2023-02-21T11:56:35.000Z,1013.7
2023-02-21T11:59:20.000Z,1013.8
2023-02-21T12:02:04.000Z,1013.7
2023-02-21T12:04:49.000Z,1013.7
2023-02-21T12:06:07.000Z,1013.7
2023-02-21T12:07:33.000Z,1013.6
2023-02-21T12:10:18.000Z,1013.6
2023-02-21T12:13:03.000Z,1013.6
2023-02-21T12:15:47.000Z,1013.6
2023-02-21T12:18:32.000Z,1013.6
2023-02-21T12:21:17.000Z,1013.6
2023-02-21T12:24:01.000Z,1013.5
2023-02-21T12:26:46.000Z,1013.5
2023-02-21T12:29:31.000Z,1013.5
2023-02-21T12:32:15.000Z,1013.5
2023-02-21T12:33:33.000Z,1013.4
2023-02-21T12:35:00.000Z,1013.4
2023-02-21T12:37:44.000Z,1013.4
2023-02-21T12:40:29.000Z,1013.4
2023-02-21T12:45:58.000Z,1013.4
2023-02-21T12:48:43.000Z,1013.3
2023-02-21T12:51:28.000Z,1013.3
2023-02-21T12:54:12.000Z,1013.3
2023-02-21T12:56:57.000Z,1013.3
2023-02-21T12:59:42.000Z,1013.3
2023-02-21T13:00:59.000Z,1013.2
2023-02-21T13:02:26.000Z,1013.2
2023-02-21T13:05:11.000Z,1013.2
2023-02-21T13:07:56.000Z,1013.2
2023-02-21T13:15:53.000Z,1013.1
2023-02-21T13:18:38.000Z,1013.1
2023-02-21T13:21:22.000Z,1013.1
2023-02-21T13:24:07.000Z,1013.1
2023-02-21T13:26:52.000Z,1013
2023-02-21T13:28:26.000Z,1013.1
2023-02-21T13:29:44.000Z,1013.1
2023-02-21T13:32:28.000Z,1013
2023-02-21T13:35:13.000Z,1013
2023-02-21T13:37:57.000Z,1012.9
2023-02-21T13:40:42.000Z,1012.9
2023-02-21T13:43:27.000Z,1012.9
2023-02-21T13:46:11.000Z,1012.8
2023-02-21T13:54:09.000Z,1012.8
2023-02-21T13:55:52.000Z,1012.9
2023-02-21T13:57:10.000Z,1012.9
2023-02-21T13:59:55.000Z,1012.9
2023-02-21T14:02:39.000Z,1012.8
2023-02-21T14:05:24.000Z,1012.9
2023-02-21T14:08:09.000Z,1012.8
2023-02-21T14:10:53.000Z,1012.8
2023-02-21T14:13:38.000Z,1012.8
2023-02-21T14:16:22.000Z,1012.8
2023-02-21T14:19:07.000Z,1012.8
2023-02-21T14:21:52.000Z,1012.8
2023-02-21T14:24:36.000Z,1012.8
2023-02-21T14:27:21.000Z,1012.8
2023-02-21T14:30:06.000Z,1012.8
2023-02-21T14:32:50.000Z,1012.8
2023-02-21T14:38:20.000Z,1012.8
2023-02-21T14:41:04.000Z,1012.7
2023-02-21T14:43:49.000Z,1012.7
2023-02-21T14:46:34.000Z,1012.7
2023-02-21T14:48:01.000Z,1012.7
2023-02-21T14:49:19.000Z,1012.7
2023-02-21T14:52:04.000Z,1012.6
2023-02-21T14:54:48.000Z,1012.6
2023-02-21T14:57:33.000Z,1012.6
2023-02-21T15:00:18.000Z,1012.6
2023-02-21T15:03:02.000Z,1012.6
2023-02-21T15:05:47.000Z,1012.6
2023-02-21T15:08:31.000Z,1012.6
2023-02-21T15:11:16.000Z,1012.6
2023-02-21T15:14:01.000Z,1012.6
2023-02-21T15:15:28.000Z,1012.5
2023-02-21T15:19:30.000Z,1012.6
2023-02-21T15:24:59.000Z,1012.5
2023-02-21T15:27:44.000Z,1012.5
2023-02-21T15:30:45.000Z,1012.5
2023-02-21T15:33:30.000Z,1012.5
2023-02-21T15:36:14.000Z,1012.6
2023-02-21T15:38:59.000Z,1012.5
2023-02-21T15:41:44.000Z,1012.5
2023-02-21T15:43:01.000Z,1012.5
2023-02-21T15:44:28.000Z,1012.5
2023-02-21T15:47:13.000Z,1012.5
2023-02-21T15:49:58.000Z,1012.5
2023-02-21T15:52:42.000Z,1012.6
2023-02-21T15:55:27.000Z,1012.5
2023-02-21T15:58:28.000Z,1012.5
2023-02-21T16:01:12.000Z,1012.5
2023-02-21T16:03:57.000Z,1012.5
2023-02-21T16:06:42.000Z,1012.5
2023-02-21T16:09:26.000Z,1012.6
2023-02-21T16:10:44.000Z,1012.6
2023-02-21T16:12:11.000Z,1012.6
2023-02-21T16:14:56.000Z,1012.6
2023-02-21T16:17:40.000Z,1012.6
2023-02-21T16:20:25.000Z,1012.6
2023-02-21T16:23:10.000Z,1012.5
2023-02-21T16:25:54.000Z,1012.6
2023-02-21T16:28:39.000Z,1012.6
2023-02-21T16:31:24.000Z,1012.6
2023-02-21T16:34:08.000Z,1012.6
2023-02-21T16:36:53.000Z,1012.5
2023-02-21T16:38:11.000Z,1012.5
2023-02-21T16:39:37.000Z,1012.5
2023-02-21T16:42:22.000Z,1012.5
2023-02-21T16:45:07.000Z,1012.5
2023-02-21T16:47:51.000Z,1012.5
2023-02-21T16:50:36.000Z,1012.5
2023-02-21T16:53:21.000Z,1012.5
2023-02-21T16:56:05.000Z,1012.6
2023-02-21T16:58:50.000Z,1012.6
2023-02-21T17:01:35.000Z,1012.7
2023-02-21T17:04:19.000Z,1012.7
2023-02-21T17:05:37.000Z,1012.7
2023-02-21T17:07:04.000Z,1012.7
2023-02-21T17:09:48.000Z,1012.7
2023-02-21T17:12:33.000Z,1012.7
2023-02-21T17:15:18.000Z,1012.6
2023-02-21T17:18:02.000Z,1012.7
2023-02-21T17:20:47.000Z,1012.6
2023-02-21T17:23:32.000Z,1012.6
2023-02-21T17:26:16.000Z,1012.6
2023-02-21T17:29:01.000Z,1012.6
2023-02-21T17:31:46.000Z,1012.6
2023-02-21T17:33:03.000Z,1012.5
2023-02-21T17:34:30.000Z,1012.5
2023-02-21T17:37:31.000Z,1012.5
2023-02-21T17:40:16.000Z,1012.5
2023-02-21T17:43:01.000Z,1012.5
2023-02-21T17:48:30.000Z,1012.5
2023-02-21T17:51:14.000Z,1012.5
2023-02-21T17:53:59.000Z,1012.5
2023-02-21T17:56:44.000Z,1012.5
2023-02-21T17:59:28.000Z,1012.5
2023-02-21T18:00:46.000Z,1012.6
2023-02-21T18:04:58.000Z,1012.6
2023-02-21T18:07:42.000Z,1012.6
2023-02-21T18:10:27.000Z,1012.6
2023-02-21T18:13:12.000Z,1012.6
2023-02-21T18:15:56.000Z,1012.6
2023-02-21T18:18:41.000Z,1012.6
2023-02-21T18:21:26.000Z,1012.6
2023-02-21T18:24:10.000Z,1012.6
2023-02-21T18:26:55.000Z,1012.6
2023-02-21T18:28:13.000Z,1012.6
2023-02-21T18:29:39.000Z,1012.6
2023-02-21T18:32:24.000Z,1012.6
2023-02-21T18:35:09.000Z,1012.6
2023-02-21T18:37:53.000Z,1012.6
2023-02-21T18:40:38.000Z,1012.6
2023-02-21T18:43:23.000Z,1012.7
2023-02-21T18:46:07.000Z,1012.6
2023-02-21T18:48:52.000Z,1012.6
2023-02-21T18:51:37.000Z,1012.6
2023-02-21T18:54:21.000Z,1012.6
2023-02-21T18:55:39.000Z,1012.6
2023-02-21T18:57:06.000Z,1012.6
2023-02-21T18:59:50.000Z,1012.6
2023-02-21T19:02:35.000Z,1012.6
2023-02-21T19:05:20.000Z,1012.5
2023-02-21T19:08:04.000Z,1012.5
2023-02-21T19:10:49.000Z,1012.5
2023-02-21T19:13:34.000Z,1012.5
2023-02-21T19:16:18.000Z,1012.5
2023-02-21T19:19:03.000Z,1012.4
2023-02-21T19:21:48.000Z,1012.5
2023-02-21T19:23:05.000Z,1012.4
2023-02-21T19:24:32.000Z,1012.4
2023-02-21T19:27:17.000Z,1012.4
2023-02-21T19:30:02.000Z,1012.4
2023-02-21T19:32:46.000Z,1012.4
2023-02-21T19:35:31.000Z,1012.4
2023-02-21T19:38:15.000Z,1012.4
2023-02-21T19:41:00.000Z,1012.4
2023-02-21T19:43:45.000Z,1012.3
2023-02-21T19:46:29.000Z,1012.3
2023-02-21T19:49:14.000Z,1012.3
2023-02-21T19:50:32.000Z,1012.3
2023-02-21T19:51:59.000Z,1012.3
2023-02-21T19:54:43.000Z,1012.2
2023-02-21T19:57:28.000Z,1012.3
2023-02-21T20:00:13.000Z,1012.2
2023-02-21T20:02:57.000Z,1012.2
2023-02-21T20:05:42.000Z,1012.2
2023-02-21T20:08:26.000Z,1012.2
2023-02-21T20:11:11.000Z,1012.1
2023-02-21T20:13:56.000Z,1012.1
2023-02-21T20:16:40.000Z,1012.1
2023-02-21T20:17:58.000Z,1012.1
2023-02-21T20:19:25.000Z,1012.1
2023-02-21T20:22:10.000Z,1012.1
2023-02-21T20:24:54.000Z,1012.1
2023-02-21T20:27:39.000Z,1012.1
2023-02-21T20:30:24.000Z,1012.1
2023-02-21T20:33:08.000Z,1012.1
2023-02-21T20:35:53.000Z,1012.1
2023-02-21T20:38:38.000Z,1012.1
2023-02-21T20:41:22.000Z,1012
2023-02-21T20:44:07.000Z,1012
2023-02-21T20:45:25.000Z,1012
2023-02-21T20:46:51.000Z,1012
2023-02-21T20:49:36.000Z,1012
2023-02-21T20:52:21.000Z,1012
2023-02-21T20:55:05.000Z,1012
2023-02-21T20:57:50.000Z,1012
2023-02-21T21:00:35.000Z,1011.9
2023-02-21T21:03:19.000Z,1012
2023-02-21T21:06:04.000Z,1012
2023-02-21T21:08:49.000Z,1012
2023-02-21T21:11:33.000Z,1012
2023-02-21T21:12:51.000Z,1012
2023-02-21T21:14:18.000Z,1011.9
2023-02-21T21:17:03.000Z,1012
2023-02-21T21:19:47.000Z,1012
2023-02-21T21:22:32.000Z,1011.9
2023-02-21T21:25:16.000Z,1011.9
2023-02-21T21:28:01.000Z,1011.9
2023-02-21T21:30:46.000Z,1011.9
2023-02-21T21:33:30.000Z,1011.9
2023-02-21T21:36:15.000Z,1011.9
2023-02-21T21:39:00.000Z,1011.9
2023-02-21T21:40:17.000Z,1011.9
2023-02-21T21:41:44.000Z,1011.9
2023-02-21T21:44:29.000Z,1011.9
2023-02-21T21:47:14.000Z,1011.8
2023-02-21T21:49:58.000Z,1011.8
2023-02-21T21:52:43.000Z,1011.8
2023-02-21T21:55:27.000Z,1011.8
2023-02-21T21:58:12.000Z,1011.7
2023-02-21T22:00:57.000Z,1011.7
2023-02-21T22:03:41.000Z,1011.6
2023-02-21T22:06:26.000Z,1011.6
2023-02-21T22:07:44.000Z,1011.5
2023-02-21T22:09:11.000Z,1011.5
2023-02-21T22:11:55.000Z,1011.5
2023-02-21T22:14:40.000Z,1011.6
2023-02-21T22:17:25.000Z,1011.5
2023-02-21T22:20:09.000Z,1011.5
2023-02-21T22:22:54.000Z,1011.4
2023-02-21T22:25:39.000Z,1011.4
2023-02-21T22:28:23.000Z,1011.4
2023-02-21T22:31:08.000Z,1011.3
2023-02-21T22:33:52.000Z,1011.4
2023-02-21T22:35:10.000Z,1011.3
2023-02-21T22:36:37.000Z,1011.2
2023-02-21T22:39:22.000Z,1011.2
2023-02-21T22:42:06.000Z,1011.2
2023-02-21T22:44:51.000Z,1011.2
2023-02-21T22:47:36.000Z,1011.2
2023-02-21T22:50:20.000Z,1011.2
2023-02-21T22:53:05.000Z,1011.2
2023-02-21T22:55:50.000Z,1011.2
2023-02-21T22:58:34.000Z,1011.1
2023-02-21T23:01:19.000Z,1011.1
2023-02-21T23:02:37.000Z,1011
2023-02-21T23:04:03.000Z,1011
2023-02-21T23:06:48.000Z,1011
2023-02-21T23:09:33.000Z,1011
2023-02-21T23:12:17.000Z,1011
2023-02-21T23:15:02.000Z,1011
2023-02-21T23:17:47.000Z,1011
2023-02-21T23:20:31.000Z,1010.9
2023-02-21T23:23:16.000Z,1010.9
2023-02-21T23:26:01.000Z,1010.8
2023-02-21T23:28:45.000Z,1010.8
2023-02-21T23:30:03.000Z,1010.8
2023-02-21T23:31:30.000Z,1010.8
2023-02-21T23:34:15.000Z,1010.8
2023-02-21T23:36:59.000Z,1010.8
2023-02-21T23:39:44.000Z,1010.8
2023-02-21T23:42:28.000Z,1010.8
2023-02-21T23:45:13.000Z,1010.8
2023-02-21T23:47:58.000Z,1010.7
2023-02-21T23:50:42.000Z,1010.8
2023-02-21T23:53:27.000Z,1010.7
2023-02-21T23:56:12.000Z,1010.7
2023-02-21T23:57:30.000Z,1010.7
2023-02-21T23:58:56.000Z,1010.7
